San Diego, California
Traffic Map
Current Weather Conditions
San Diego, California
Broken Clouds
Broken Clouds
21°
Feels Like: 21°
Wind Chill: 21° Ceiling: 1800
Heat Index: 21° Visibility: 10mi
Dew Point: 17° Wind: 8mph
Humidity: 76% Direction: 170° (S)
Pressure: 29.86in Gusts: 0mph
Raw Report DataKSAN 020751Z 17007KT 10SM BKN018 21/17 A2986 RMK AO2 SLP111 T02110167 402390200 $
Traffic Incident Summary
Active as of:
Severity:
Category:
InformationThere was an issue retrieving the traffic information for this location. Please try a different location or try again shortly.
Advertisements
Track Severe Weather on mobile